sensor_id;sensor_type;location;lat;lon;timestamp;P1;durP1;ratioP1;P2;durP2;ratioP2
35110;SDS011;21290;50.158;8.658;2024-02-26T00:01:46;2.15;;;1.52;;
35110;SDS011;21290;50.158;8.658;2024-02-26T00:04:13;2.22;;;1.40;;
35110;SDS011;21290;50.158;8.658;2024-02-26T00:06:40;1.48;;;1.38;;
35110;SDS011;21290;50.158;8.658;2024-02-26T00:09:07;1.25;;;1.15;;
35110;SDS011;21290;50.158;8.658;2024-02-26T00:11:37;2.60;;;1.48;;
35110;SDS011;21290;50.158;8.658;2024-02-26T00:14:04;2.60;;;1.40;;
35110;SDS011;21290;50.158;8.658;2024-02-26T00:16:31;1.77;;;1.20;;
35110;SDS011;21290;50.158;8.658;2024-02-26T00:18:58;1.92;;;1.27;;
35110;SDS011;21290;50.158;8.658;2024-02-26T00:21:25;1.85;;;1.30;;
35110;SDS011;21290;50.158;8.658;2024-02-26T00:23:54;2.05;;;1.60;;
35110;SDS011;21290;50.158;8.658;2024-02-26T00:26:21;4.15;;;2.75;;
35110;SDS011;21290;50.158;8.658;2024-02-26T00:28:48;4.20;;;2.00;;
35110;SDS011;21290;50.158;8.658;2024-02-26T00:31:15;1.98;;;1.58;;
35110;SDS011;21290;50.158;8.658;2024-02-26T00:33:42;1.58;;;1.27;;
35110;SDS011;21290;50.158;8.658;2024-02-26T00:36:09;2.42;;;1.42;;
35110;SDS011;21290;50.158;8.658;2024-02-26T00:38:36;1.85;;;1.50;;
35110;SDS011;21290;50.158;8.658;2024-02-26T00:41:03;4.05;;;1.35;;
35110;SDS011;21290;50.158;8.658;2024-02-26T00:43:30;2.72;;;1.52;;
35110;SDS011;21290;50.158;8.658;2024-02-26T00:45:57;2.00;;;1.40;;
35110;SDS011;21290;50.158;8.658;2024-02-26T00:48:23;1.27;;;1.17;;
35110;SDS011;21290;50.158;8.658;2024-02-26T00:50:52;2.72;;;1.73;;
35110;SDS011;21290;50.158;8.658;2024-02-26T00:53:18;1.75;;;1.30;;
35110;SDS011;21290;50.158;8.658;2024-02-26T00:55:45;2.03;;;1.67;;
35110;SDS011;21290;50.158;8.658;2024-02-26T00:58:12;1.52;;;1.30;;
35110;SDS011;21290;50.158;8.658;2024-02-26T01:00:38;2.03;;;1.40;;
35110;SDS011;21290;50.158;8.658;2024-02-26T01:03:05;2.78;;;1.50;;
35110;SDS011;21290;50.158;8.658;2024-02-26T01:05:32;1.58;;;1.40;;
35110;SDS011;21290;50.158;8.658;2024-02-26T01:07:59;2.13;;;1.50;;
35110;SDS011;21290;50.158;8.658;2024-02-26T01:10:26;2.13;;;1.55;;
35110;SDS011;21290;50.158;8.658;2024-02-26T01:12:53;1.92;;;1.70;;
35110;SDS011;21290;50.158;8.658;2024-02-26T01:15:19;3.30;;;2.03;;
35110;SDS011;21290;50.158;8.658;2024-02-26T01:17:50;3.15;;;2.08;;
35110;SDS011;21290;50.158;8.658;2024-02-26T01:20:17;2.45;;;1.90;;
35110;SDS011;21290;50.158;8.658;2024-02-26T01:22:43;5.72;;;2.00;;
35110;SDS011;21290;50.158;8.658;2024-02-26T01:25:10;4.03;;;2.33;;
35110;SDS011;21290;50.158;8.658;2024-02-26T01:27:38;2.65;;;2.05;;
35110;SDS011;21290;50.158;8.658;2024-02-26T01:30:07;4.55;;;1.90;;
35110;SDS011;21290;50.158;8.658;2024-02-26T01:32:34;2.30;;;1.80;;
35110;SDS011;21290;50.158;8.658;2024-02-26T01:35:02;2.72;;;1.63;;
35110;SDS011;21290;50.158;8.658;2024-02-26T01:37:36;3.67;;;2.00;;
35110;SDS011;21290;50.158;8.658;2024-02-26T01:40:03;2.60;;;2.10;;
35110;SDS011;21290;50.158;8.658;2024-02-26T01:42:33;3.95;;;1.90;;
35110;SDS011;21290;50.158;8.658;2024-02-26T01:45:00;3.80;;;1.98;;
35110;SDS011;21290;50.158;8.658;2024-02-26T01:47:27;3.20;;;2.22;;
35110;SDS011;21290;50.158;8.658;2024-02-26T01:49:54;2.80;;;2.30;;
35110;SDS011;21290;50.158;8.658;2024-02-26T01:52:21;5.50;;;2.20;;
35110;SDS011;21290;50.158;8.658;2024-02-26T01:54:48;2.13;;;1.83;;
35110;SDS011;21290;50.158;8.658;2024-02-26T01:57:15;3.53;;;2.15;;
35110;SDS011;21290;50.158;8.658;2024-02-26T01:59:42;4.18;;;2.20;;
35110;SDS011;21290;50.158;8.658;2024-02-26T02:02:09;2.90;;;2.00;;
35110;SDS011;21290;50.158;8.658;2024-02-26T02:04:38;4.88;;;2.60;;
35110;SDS011;21290;50.158;8.658;2024-02-26T02:07:05;3.65;;;2.22;;
35110;SDS011;21290;50.158;8.658;2024-02-26T02:09:32;4.35;;;2.28;;
35110;SDS011;21290;50.158;8.658;2024-02-26T02:11:59;2.95;;;2.05;;
35110;SDS011;21290;50.158;8.658;2024-02-26T02:14:26;3.42;;;2.20;;
35110;SDS011;21290;50.158;8.658;2024-02-26T02:16:53;3.63;;;2.40;;
35110;SDS011;21290;50.158;8.658;2024-02-26T02:19:20;2.33;;;2.10;;
35110;SDS011;21290;50.158;8.658;2024-02-26T02:21:47;3.33;;;2.20;;
35110;SDS011;21290;50.158;8.658;2024-02-26T02:24:14;5.03;;;2.17;;
35110;SDS011;21290;50.158;8.658;2024-02-26T02:26:40;2.92;;;2.40;;
35110;SDS011;21290;50.158;8.658;2024-02-26T02:29:07;2.65;;;2.10;;
35110;SDS011;21290;50.158;8.658;2024-02-26T02:31:35;3.08;;;2.40;;
35110;SDS011;21290;50.158;8.658;2024-02-26T02:34:02;3.15;;;2.25;;
35110;SDS011;21290;50.158;8.658;2024-02-26T02:36:29;3.20;;;2.25;;
35110;SDS011;21290;50.158;8.658;2024-02-26T02:38:56;3.85;;;2.30;;
35110;SDS011;21290;50.158;8.658;2024-02-26T02:41:23;2.92;;;2.20;;
35110;SDS011;21290;50.158;8.658;2024-02-26T02:43:50;2.90;;;2.05;;
35110;SDS011;21290;50.158;8.658;2024-02-26T02:46:16;3.08;;;2.17;;
35110;SDS011;21290;50.158;8.658;2024-02-26T02:48:44;2.70;;;2.00;;
35110;SDS011;21290;50.158;8.658;2024-02-26T02:51:11;2.63;;;1.90;;
35110;SDS011;21290;50.158;8.658;2024-02-26T02:53:38;2.60;;;2.22;;
35110;SDS011;21290;50.158;8.658;2024-02-26T02:56:05;3.08;;;1.85;;
35110;SDS011;21290;50.158;8.658;2024-02-26T02:58:32;3.30;;;2.10;;
35110;SDS011;21290;50.158;8.658;2024-02-26T03:00:58;4.03;;;2.03;;
35110;SDS011;21290;50.158;8.658;2024-02-26T03:03:27;2.38;;;2.10;;
35110;SDS011;21290;50.158;8.658;2024-02-26T03:05:55;2.93;;;2.10;;
35110;SDS011;21290;50.158;8.658;2024-02-26T03:08:22;3.65;;;2.33;;
35110;SDS011;21290;50.158;8.658;2024-02-26T03:10:49;2.50;;;2.00;;
35110;SDS011;21290;50.158;8.658;2024-02-26T03:13:16;5.45;;;2.60;;
35110;SDS011;21290;50.158;8.658;2024-02-26T03:15:43;2.78;;;2.03;;
35110;SDS011;21290;50.158;8.658;2024-02-26T03:18:10;2.78;;;2.05;;
35110;SDS011;21290;50.158;8.658;2024-02-26T03:20:37;2.20;;;1.90;;
35110;SDS011;21290;50.158;8.658;2024-02-26T03:23:03;2.95;;;2.13;;
35110;SDS011;21290;50.158;8.658;2024-02-26T03:25:30;2.35;;;1.90;;
35110;SDS011;21290;50.158;8.658;2024-02-26T03:27:57;2.63;;;2.20;;
35110;SDS011;21290;50.158;8.658;2024-02-26T03:30:24;2.15;;;1.90;;
35110;SDS011;21290;50.158;8.658;2024-02-26T03:32:50;3.05;;;2.00;;
35110;SDS011;21290;50.158;8.658;2024-02-26T03:35:17;4.80;;;2.10;;
35110;SDS011;21290;50.158;8.658;2024-02-26T03:37:45;2.42;;;1.85;;
35110;SDS011;21290;50.158;8.658;2024-02-26T03:40:13;2.50;;;1.90;;
35110;SDS011;21290;50.158;8.658;2024-02-26T03:42:40;4.95;;;2.55;;
35110;SDS011;21290;50.158;8.658;2024-02-26T03:45:07;3.50;;;1.98;;
35110;SDS011;21290;50.158;8.658;2024-02-26T03:47:37;3.75;;;2.42;;
35110;SDS011;21290;50.158;8.658;2024-02-26T03:50:04;2.80;;;2.00;;
35110;SDS011;21290;50.158;8.658;2024-02-26T03:52:32;3.90;;;2.40;;
35110;SDS011;21290;50.158;8.658;2024-02-26T03:55:00;3.85;;;2.17;;
35110;SDS011;21290;50.158;8.658;2024-02-26T03:57:26;3.03;;;1.90;;
35110;SDS011;21290;50.158;8.658;2024-02-26T03:59:53;4.20;;;2.03;;
35110;SDS011;21290;50.158;8.658;2024-02-26T04:02:20;3.83;;;2.40;;
35110;SDS011;21290;50.158;8.658;2024-02-26T04:04:47;2.78;;;1.90;;
35110;SDS011;21290;50.158;8.658;2024-02-26T04:07:14;3.15;;;2.20;;
35110;SDS011;21290;50.158;8.658;2024-02-26T04:09:41;3.72;;;2.28;;
35110;SDS011;21290;50.158;8.658;2024-02-26T04:12:07;3.40;;;2.30;;
35110;SDS011;21290;50.158;8.658;2024-02-26T04:14:35;2.78;;;2.20;;
35110;SDS011;21290;50.158;8.658;2024-02-26T04:17:02;4.15;;;2.53;;
35110;SDS011;21290;50.158;8.658;2024-02-26T04:19:29;6.00;;;2.65;;
35110;SDS011;21290;50.158;8.658;2024-02-26T04:21:56;3.45;;;2.30;;
35110;SDS011;21290;50.158;8.658;2024-02-26T04:24:23;2.67;;;2.28;;
35110;SDS011;21290;50.158;8.658;2024-02-26T04:26:49;3.38;;;2.40;;
35110;SDS011;21290;50.158;8.658;2024-02-26T04:29:16;4.22;;;2.45;;
35110;SDS011;21290;50.158;8.658;2024-02-26T04:31:43;2.50;;;2.10;;
35110;SDS011;21290;50.158;8.658;2024-02-26T04:34:09;2.95;;;2.08;;
35110;SDS011;21290;50.158;8.658;2024-02-26T04:36:40;2.42;;;1.95;;
35110;SDS011;21290;50.158;8.658;2024-02-26T04:39:06;3.47;;;2.28;;
35110;SDS011;21290;50.158;8.658;2024-02-26T04:41:33;4.53;;;2.17;;
35110;SDS011;21290;50.158;8.658;2024-02-26T04:44:00;4.20;;;2.70;;
35110;SDS011;21290;50.158;8.658;2024-02-26T04:46:27;3.85;;;2.53;;
35110;SDS011;21290;50.158;8.658;2024-02-26T04:48:54;4.30;;;2.58;;
35110;SDS011;21290;50.158;8.658;2024-02-26T04:51:23;3.40;;;2.78;;
35110;SDS011;21290;50.158;8.658;2024-02-26T04:53:50;2.92;;;2.47;;
35110;SDS011;21290;50.158;8.658;2024-02-26T04:56:17;3.10;;;2.42;;
35110;SDS011;21290;50.158;8.658;2024-02-26T04:58:44;3.35;;;2.10;;
35110;SDS011;21290;50.158;8.658;2024-02-26T05:01:11;5.45;;;2.58;;
35110;SDS011;21290;50.158;8.658;2024-02-26T05:03:38;4.72;;;2.80;;
35110;SDS011;21290;50.158;8.658;2024-02-26T05:06:05;5.95;;;2.67;;
35110;SDS011;21290;50.158;8.658;2024-02-26T05:08:32;3.00;;;2.50;;
35110;SDS011;21290;50.158;8.658;2024-02-26T05:11:01;2.85;;;2.40;;
35110;SDS011;21290;50.158;8.658;2024-02-26T05:13:29;4.85;;;2.85;;
35110;SDS011;21290;50.158;8.658;2024-02-26T05:15:56;3.53;;;2.80;;
35110;SDS011;21290;50.158;8.658;2024-02-26T05:18:22;5.53;;;3.15;;
35110;SDS011;21290;50.158;8.658;2024-02-26T05:20:49;4.13;;;3.10;;
35110;SDS011;21290;50.158;8.658;2024-02-26T05:23:16;3.92;;;2.67;;
35110;SDS011;21290;50.158;8.658;2024-02-26T05:25:44;4.30;;;2.77;;
35110;SDS011;21290;50.158;8.658;2024-02-26T05:28:13;5.80;;;3.05;;
35110;SDS011;21290;50.158;8.658;2024-02-26T05:30:42;4.93;;;2.80;;
35110;SDS011;21290;50.158;8.658;2024-02-26T05:33:09;4.28;;;3.33;;
35110;SDS011;21290;50.158;8.658;2024-02-26T05:35:38;4.05;;;3.15;;
35110;SDS011;21290;50.158;8.658;2024-02-26T05:38:05;5.07;;;3.03;;
35110;SDS011;21290;50.158;8.658;2024-02-26T05:40:31;5.10;;;3.60;;
35110;SDS011;21290;50.158;8.658;2024-02-26T05:42:59;5.43;;;3.03;;
35110;SDS011;21290;50.158;8.658;2024-02-26T05:45:26;5.07;;;3.70;;
35110;SDS011;21290;50.158;8.658;2024-02-26T05:47:53;4.93;;;3.45;;
35110;SDS011;21290;50.158;8.658;2024-02-26T05:50:20;6.40;;;3.92;;
35110;SDS011;21290;50.158;8.658;2024-02-26T05:52:47;5.28;;;3.55;;
35110;SDS011;21290;50.158;8.658;2024-02-26T05:55:14;4.82;;;3.60;;
35110;SDS011;21290;50.158;8.658;2024-02-26T05:57:41;4.78;;;3.72;;
35110;SDS011;21290;50.158;8.658;2024-02-26T06:00:08;6.68;;;4.45;;
35110;SDS011;21290;50.158;8.658;2024-02-26T06:02:39;6.57;;;4.45;;
35110;SDS011;21290;50.158;8.658;2024-02-26T06:05:06;8.07;;;4.22;;
35110;SDS011;21290;50.158;8.658;2024-02-26T06:07:34;9.75;;;4.13;;
35110;SDS011;21290;50.158;8.658;2024-02-26T06:10:04;6.03;;;4.53;;
35110;SDS011;21290;50.158;8.658;2024-02-26T06:12:31;5.55;;;3.63;;
35110;SDS011;21290;50.158;8.658;2024-02-26T06:15:02;5.90;;;4.30;;
35110;SDS011;21290;50.158;8.658;2024-02-26T06:17:30;7.18;;;3.75;;
35110;SDS011;21290;50.158;8.658;2024-02-26T06:19:57;5.43;;;3.55;;
35110;SDS011;21290;50.158;8.658;2024-02-26T06:22:26;6.47;;;4.07;;
35110;SDS011;21290;50.158;8.658;2024-02-26T06:24:53;5.75;;;4.10;;
35110;SDS011;21290;50.158;8.658;2024-02-26T06:27:19;5.00;;;4.03;;
35110;SDS011;21290;50.158;8.658;2024-02-26T06:29:47;5.82;;;4.15;;
35110;SDS011;21290;50.158;8.658;2024-02-26T06:32:14;5.43;;;4.20;;
35110;SDS011;21290;50.158;8.658;2024-02-26T06:34:41;5.07;;;4.15;;
35110;SDS011;21290;50.158;8.658;2024-02-26T06:37:08;9.55;;;4.55;;
35110;SDS011;21290;50.158;8.658;2024-02-26T06:39:35;4.93;;;4.32;;
35110;SDS011;21290;50.158;8.658;2024-02-26T06:42:02;7.55;;;4.18;;
35110;SDS011;21290;50.158;8.658;2024-02-26T06:44:29;11.77;;;4.57;;
35110;SDS011;21290;50.158;8.658;2024-02-26T06:46:58;8.25;;;4.30;;
35110;SDS011;21290;50.158;8.658;2024-02-26T06:49:26;6.43;;;4.00;;
35110;SDS011;21290;50.158;8.658;2024-02-26T06:51:53;6.05;;;4.22;;
35110;SDS011;21290;50.158;8.658;2024-02-26T06:54:20;6.63;;;4.35;;
35110;SDS011;21290;50.158;8.658;2024-02-26T06:56:47;5.78;;;4.05;;
35110;SDS011;21290;50.158;8.658;2024-02-26T06:59:14;6.47;;;4.53;;
35110;SDS011;21290;50.158;8.658;2024-02-26T07:01:41;6.32;;;4.70;;
35110;SDS011;21290;50.158;8.658;2024-02-26T07:04:08;6.28;;;4.65;;
35110;SDS011;21290;50.158;8.658;2024-02-26T07:06:37;7.03;;;4.60;;
35110;SDS011;21290;50.158;8.658;2024-02-26T07:09:04;6.47;;;4.18;;
35110;SDS011;21290;50.158;8.658;2024-02-26T07:11:31;8.48;;;4.72;;
35110;SDS011;21290;50.158;8.658;2024-02-26T07:13:58;7.82;;;4.68;;
35110;SDS011;21290;50.158;8.658;2024-02-26T07:16:25;5.78;;;4.32;;
35110;SDS011;21290;50.158;8.658;2024-02-26T07:18:53;10.13;;;4.88;;
35110;SDS011;21290;50.158;8.658;2024-02-26T07:21:20;8.35;;;5.25;;
35110;SDS011;21290;50.158;8.658;2024-02-26T07:23:47;9.48;;;5.50;;
35110;SDS011;21290;50.158;8.658;2024-02-26T07:26:13;7.30;;;4.90;;
35110;SDS011;21290;50.158;8.658;2024-02-26T07:28:40;6.35;;;4.78;;
35110;SDS011;21290;50.158;8.658;2024-02-26T07:31:07;10.48;;;4.78;;
35110;SDS011;21290;50.158;8.658;2024-02-26T07:33:34;6.47;;;4.72;;
35110;SDS011;21290;50.158;8.658;2024-02-26T07:36:01;7.20;;;4.82;;
35110;SDS011;21290;50.158;8.658;2024-02-26T07:38:28;8.85;;;4.82;;
35110;SDS011;21290;50.158;8.658;2024-02-26T07:41:08;6.32;;;4.70;;
35110;SDS011;21290;50.158;8.658;2024-02-26T07:43:35;8.43;;;5.18;;
35110;SDS011;21290;50.158;8.658;2024-02-26T07:46:02;6.90;;;4.28;;
35110;SDS011;21290;50.158;8.658;2024-02-26T07:48:28;8.05;;;4.28;;
35110;SDS011;21290;50.158;8.658;2024-02-26T07:50:56;6.93;;;4.28;;
35110;SDS011;21290;50.158;8.658;2024-02-26T07:53:22;7.88;;;4.53;;
35110;SDS011;21290;50.158;8.658;2024-02-26T07:55:49;7.40;;;4.60;;
35110;SDS011;21290;50.158;8.658;2024-02-26T07:58:16;10.60;;;4.80;;
35110;SDS011;21290;50.158;8.658;2024-02-26T08:00:42;6.88;;;4.38;;
35110;SDS011;21290;50.158;8.658;2024-02-26T08:03:10;9.40;;;4.53;;
35110;SDS011;21290;50.158;8.658;2024-02-26T08:05:37;32.92;;;18.67;;
35110;SDS011;21290;50.158;8.658;2024-02-26T08:08:06;35.05;;;20.70;;
35110;SDS011;21290;50.158;8.658;2024-02-26T08:10:33;16.27;;;11.40;;
35110;SDS011;21290;50.158;8.658;2024-02-26T08:13:00;12.32;;;8.77;;
35110;SDS011;21290;50.158;8.658;2024-02-26T08:15:32;9.88;;;7.32;;
35110;SDS011;21290;50.158;8.658;2024-02-26T08:18:03;7.78;;;5.50;;
35110;SDS011;21290;50.158;8.658;2024-02-26T08:20:31;6.85;;;5.00;;
35110;SDS011;21290;50.158;8.658;2024-02-26T08:22:58;7.35;;;5.20;;
35110;SDS011;21290;50.158;8.658;2024-02-26T08:25:24;9.43;;;4.93;;
35110;SDS011;21290;50.158;8.658;2024-02-26T08:27:51;7.45;;;5.63;;
35110;SDS011;21290;50.158;8.658;2024-02-26T08:30:18;9.82;;;6.45;;
35110;SDS011;21290;50.158;8.658;2024-02-26T08:32:46;8.30;;;6.18;;
35110;SDS011;21290;50.158;8.658;2024-02-26T08:35:17;7.82;;;5.95;;
35110;SDS011;21290;50.158;8.658;2024-02-26T08:37:45;7.03;;;4.65;;
35110;SDS011;21290;50.158;8.658;2024-02-26T08:40:13;8.52;;;4.95;;
35110;SDS011;21290;50.158;8.658;2024-02-26T08:42:40;8.73;;;5.60;;
35110;SDS011;21290;50.158;8.658;2024-02-26T08:45:07;6.30;;;4.97;;
35110;SDS011;21290;50.158;8.658;2024-02-26T08:47:35;6.43;;;4.22;;
35110;SDS011;21290;50.158;8.658;2024-02-26T08:50:02;6.85;;;4.70;;
35110;SDS011;21290;50.158;8.658;2024-02-26T08:52:29;5.47;;;4.53;;
35110;SDS011;21290;50.158;8.658;2024-02-26T08:54:56;6.57;;;4.28;;
35110;SDS011;21290;50.158;8.658;2024-02-26T08:57:23;8.80;;;4.78;;
35110;SDS011;21290;50.158;8.658;2024-02-26T08:59:53;7.35;;;4.53;;
35110;SDS011;21290;50.158;8.658;2024-02-26T09:02:20;8.02;;;5.00;;
35110;SDS011;21290;50.158;8.658;2024-02-26T09:04:47;6.55;;;4.97;;
35110;SDS011;21290;50.158;8.658;2024-02-26T09:07:14;6.35;;;4.82;;
35110;SDS011;21290;50.158;8.658;2024-02-26T09:09:40;6.60;;;4.80;;
35110;SDS011;21290;50.158;8.658;2024-02-26T09:12:07;8.30;;;5.70;;
35110;SDS011;21290;50.158;8.658;2024-02-26T09:14:34;7.97;;;5.40;;
35110;SDS011;21290;50.158;8.658;2024-02-26T09:17:01;7.57;;;4.97;;
35110;SDS011;21290;50.158;8.658;2024-02-26T09:19:28;8.80;;;5.30;;
35110;SDS011;21290;50.158;8.658;2024-02-26T09:21:55;15.60;;;5.40;;
35110;SDS011;21290;50.158;8.658;2024-02-26T09:24:23;9.03;;;5.50;;
35110;SDS011;21290;50.158;8.658;2024-02-26T09:26:51;9.23;;;5.65;;
35110;SDS011;21290;50.158;8.658;2024-02-26T09:29:17;8.48;;;5.70;;
35110;SDS011;21290;50.158;8.658;2024-02-26T09:31:44;6.75;;;5.13;;
35110;SDS011;21290;50.158;8.658;2024-02-26T09:34:13;7.65;;;5.97;;
35110;SDS011;21290;50.158;8.658;2024-02-26T09:36:40;8.57;;;5.82;;
35110;SDS011;21290;50.158;8.658;2024-02-26T09:39:07;8.98;;;5.65;;
35110;SDS011;21290;50.158;8.658;2024-02-26T09:41:38;8.38;;;6.10;;
35110;SDS011;21290;50.158;8.658;2024-02-26T09:44:05;11.60;;;5.85;;
35110;SDS011;21290;50.158;8.658;2024-02-26T09:46:33;7.47;;;5.65;;
35110;SDS011;21290;50.158;8.658;2024-02-26T09:49:00;7.60;;;5.30;;
35110;SDS011;21290;50.158;8.658;2024-02-26T09:51:28;8.32;;;5.38;;
35110;SDS011;21290;50.158;8.658;2024-02-26T09:53:55;7.85;;;5.55;;
35110;SDS011;21290;50.158;8.658;2024-02-26T09:56:25;8.73;;;5.70;;
35110;SDS011;21290;50.158;8.658;2024-02-26T09:58:53;10.23;;;5.82;;
35110;SDS011;21290;50.158;8.658;2024-02-26T10:01:21;7.78;;;6.03;;
35110;SDS011;21290;50.158;8.658;2024-02-26T10:03:52;9.15;;;5.50;;
35110;SDS011;21290;50.158;8.658;2024-02-26T10:06:26;7.95;;;5.30;;
35110;SDS011;21290;50.158;8.658;2024-02-26T10:08:54;11.27;;;5.63;;
35110;SDS011;21290;50.158;8.658;2024-02-26T10:13:50;9.60;;;4.82;;
35110;SDS011;21290;50.158;8.658;2024-02-26T10:16:16;6.82;;;5.05;;
35110;SDS011;21290;50.158;8.658;2024-02-26T10:18:50;6.82;;;4.95;;
35110;SDS011;21290;50.158;8.658;2024-02-26T10:21:25;9.00;;;4.75;;
35110;SDS011;21290;50.158;8.658;2024-02-26T10:23:52;8.63;;;5.30;;
35110;SDS011;21290;50.158;8.658;2024-02-26T10:26:19;7.55;;;5.28;;
35110;SDS011;21290;50.158;8.658;2024-02-26T10:28:46;7.68;;;5.10;;
35110;SDS011;21290;50.158;8.658;2024-02-26T10:31:18;5.35;;;4.47;;
35110;SDS011;21290;50.158;8.658;2024-02-26T10:33:45;6.60;;;4.90;;
35110;SDS011;21290;50.158;8.658;2024-02-26T10:36:12;7.82;;;5.20;;
35110;SDS011;21290;50.158;8.658;2024-02-26T10:38:39;8.52;;;5.30;;
35110;SDS011;21290;50.158;8.658;2024-02-26T10:41:06;5.82;;;4.50;;
35110;SDS011;21290;50.158;8.658;2024-02-26T10:43:38;6.95;;;4.97;;
35110;SDS011;21290;50.158;8.658;2024-02-26T10:46:05;6.38;;;4.68;;
35110;SDS011;21290;50.158;8.658;2024-02-26T10:48:33;7.18;;;5.13;;
35110;SDS011;21290;50.158;8.658;2024-02-26T10:51:00;9.32;;;5.57;;
35110;SDS011;21290;50.158;8.658;2024-02-26T10:53:28;6.43;;;4.65;;
35110;SDS011;21290;50.158;8.658;2024-02-26T10:56:03;6.47;;;4.65;;
35110;SDS011;21290;50.158;8.658;2024-02-26T10:58:31;7.72;;;5.40;;
35110;SDS011;21290;50.158;8.658;2024-02-26T11:00:58;8.25;;;5.35;;
35110;SDS011;21290;50.158;8.658;2024-02-26T11:03:27;9.75;;;5.15;;
35110;SDS011;21290;50.158;8.658;2024-02-26T11:05:58;6.85;;;4.90;;
35110;SDS011;21290;50.158;8.658;2024-02-26T11:08:26;11.65;;;5.28;;
35110;SDS011;21290;50.158;8.658;2024-02-26T11:10:54;7.35;;;4.90;;
35110;SDS011;21290;50.158;8.658;2024-02-26T11:13:23;5.43;;;4.15;;
35110;SDS011;21290;50.158;8.658;2024-02-26T11:15:55;6.68;;;4.07;;
35110;SDS011;21290;50.158;8.658;2024-02-26T11:18:23;7.07;;;4.00;;
35110;SDS011;21290;50.158;8.658;2024-02-26T11:20:54;6.32;;;4.43;;
35110;SDS011;21290;50.158;8.658;2024-02-26T11:23:23;6.88;;;4.30;;
35110;SDS011;21290;50.158;8.658;2024-02-26T11:25:53;6.15;;;4.25;;
35110;SDS011;21290;50.158;8.658;2024-02-26T11:28:24;6.13;;;4.32;;
35110;SDS011;21290;50.158;8.658;2024-02-26T11:30:53;7.00;;;4.40;;
35110;SDS011;21290;50.158;8.658;2024-02-26T11:33:21;6.93;;;4.10;;
35110;SDS011;21290;50.158;8.658;2024-02-26T11:35:48;6.25;;;3.90;;
35110;SDS011;21290;50.158;8.658;2024-02-26T11:38:21;4.65;;;3.75;;
35110;SDS011;21290;50.158;8.658;2024-02-26T11:40:52;6.78;;;4.40;;
35110;SDS011;21290;50.158;8.658;2024-02-26T11:43:23;5.18;;;4.00;;
35110;SDS011;21290;50.158;8.658;2024-02-26T11:46:24;6.82;;;4.20;;
35110;SDS011;21290;50.158;8.658;2024-02-26T11:51:54;7.13;;;4.13;;
35110;SDS011;21290;50.158;8.658;2024-02-26T11:54:43;5.18;;;3.90;;
35110;SDS011;21290;50.158;8.658;2024-02-26T11:57:29;5.63;;;4.05;;
35110;SDS011;21290;50.158;8.658;2024-02-26T12:00:11;5.00;;;3.75;;
35110;SDS011;21290;50.158;8.658;2024-02-26T12:05:14;8.23;;;4.10;;
35110;SDS011;21290;50.158;8.658;2024-02-26T12:07:47;6.15;;;3.30;;
35110;SDS011;21290;50.158;8.658;2024-02-26T12:13:00;5.38;;;3.72;;
35110;SDS011;21290;50.158;8.658;2024-02-26T12:15:36;4.10;;;3.28;;
35110;SDS011;21290;50.158;8.658;2024-02-26T12:18:04;4.78;;;3.50;;
35110;SDS011;21290;50.158;8.658;2024-02-26T12:20:32;4.90;;;3.75;;
35110;SDS011;21290;50.158;8.658;2024-02-26T12:23:00;7.00;;;4.32;;
35110;SDS011;21290;50.158;8.658;2024-02-26T12:25:29;6.88;;;5.13;;
35110;SDS011;21290;50.158;8.658;2024-02-26T12:27:57;5.93;;;4.50;;
35110;SDS011;21290;50.158;8.658;2024-02-26T12:30:24;5.07;;;4.03;;
35110;SDS011;21290;50.158;8.658;2024-02-26T12:32:52;4.60;;;3.50;;
35110;SDS011;21290;50.158;8.658;2024-02-26T12:35:23;4.65;;;3.30;;
35110;SDS011;21290;50.158;8.658;2024-02-26T12:37:51;5.10;;;3.55;;
35110;SDS011;21290;50.158;8.658;2024-02-26T12:40:19;4.88;;;3.70;;
35110;SDS011;21290;50.158;8.658;2024-02-26T12:42:46;4.57;;;3.60;;
35110;SDS011;21290;50.158;8.658;2024-02-26T12:45:13;4.55;;;3.67;;
35110;SDS011;21290;50.158;8.658;2024-02-26T12:47:42;4.82;;;3.78;;
35110;SDS011;21290;50.158;8.658;2024-02-26T12:50:09;5.43;;;3.75;;
35110;SDS011;21290;50.158;8.658;2024-02-26T12:52:43;5.85;;;3.72;;
35110;SDS011;21290;50.158;8.658;2024-02-26T12:55:16;5.78;;;3.75;;
35110;SDS011;21290;50.158;8.658;2024-02-26T12:57:45;4.70;;;3.85;;
35110;SDS011;21290;50.158;8.658;2024-02-26T13:00:14;5.35;;;4.10;;
35110;SDS011;21290;50.158;8.658;2024-02-26T13:02:45;6.97;;;3.70;;
35110;SDS011;21290;50.158;8.658;2024-02-26T13:05:13;7.43;;;3.90;;
35110;SDS011;21290;50.158;8.658;2024-02-26T13:07:44;4.85;;;3.80;;
35110;SDS011;21290;50.158;8.658;2024-02-26T13:10:13;7.20;;;3.40;;
35110;SDS011;21290;50.158;8.658;2024-02-26T13:12:47;5.45;;;3.53;;
35110;SDS011;21290;50.158;8.658;2024-02-26T13:15:17;7.93;;;4.13;;
35110;SDS011;21290;50.158;8.658;2024-02-26T13:17:45;7.43;;;3.83;;
35110;SDS011;21290;50.158;8.658;2024-02-26T13:20:13;7.18;;;4.05;;
35110;SDS011;21290;50.158;8.658;2024-02-26T13:22:50;6.65;;;3.90;;
35110;SDS011;21290;50.158;8.658;2024-02-26T13:25:20;4.38;;;3.60;;
35110;SDS011;21290;50.158;8.658;2024-02-26T13:27:48;5.22;;;3.45;;
35110;SDS011;21290;50.158;8.658;2024-02-26T13:30:16;6.68;;;3.67;;
35110;SDS011;21290;50.158;8.658;2024-02-26T13:32:43;8.23;;;3.92;;
35110;SDS011;21290;50.158;8.658;2024-02-26T13:35:10;5.85;;;3.10;;
35110;SDS011;21290;50.158;8.658;2024-02-26T13:37:39;5.45;;;3.63;;
35110;SDS011;21290;50.158;8.658;2024-02-26T13:40:07;6.95;;;3.42;;
35110;SDS011;21290;50.158;8.658;2024-02-26T13:42:39;10.23;;;7.18;;
35110;SDS011;21290;50.158;8.658;2024-02-26T13:45:06;8.68;;;3.90;;
35110;SDS011;21290;50.158;8.658;2024-02-26T13:47:34;3.40;;;3.10;;
35110;SDS011;21290;50.158;8.658;2024-02-26T13:50:02;4.18;;;3.45;;
35110;SDS011;21290;50.158;8.658;2024-02-26T13:52:29;5.47;;;3.10;;
35110;SDS011;21290;50.158;8.658;2024-02-26T13:54:58;6.43;;;3.28;;
35110;SDS011;21290;50.158;8.658;2024-02-26T13:57:26;5.38;;;3.85;;
35110;SDS011;21290;50.158;8.658;2024-02-26T13:59:53;5.32;;;3.60;;
35110;SDS011;21290;50.158;8.658;2024-02-26T14:02:22;4.63;;;3.17;;
35110;SDS011;21290;50.158;8.658;2024-02-26T14:04:48;4.50;;;3.28;;
35110;SDS011;21290;50.158;8.658;2024-02-26T14:07:15;4.82;;;3.50;;
35110;SDS011;21290;50.158;8.658;2024-02-26T14:09:43;5.57;;;3.45;;
35110;SDS011;21290;50.158;8.658;2024-02-26T14:12:15;4.50;;;3.38;;
35110;SDS011;21290;50.158;8.658;2024-02-26T14:14:47;5.20;;;3.55;;
35110;SDS011;21290;50.158;8.658;2024-02-26T14:17:15;4.72;;;3.50;;
35110;SDS011;21290;50.158;8.658;2024-02-26T14:19:42;5.93;;;3.72;;
35110;SDS011;21290;50.158;8.658;2024-02-26T14:22:14;5.53;;;3.40;;
35110;SDS011;21290;50.158;8.658;2024-02-26T14:24:43;3.80;;;3.10;;
35110;SDS011;21290;50.158;8.658;2024-02-26T14:27:13;4.88;;;3.35;;
35110;SDS011;21290;50.158;8.658;2024-02-26T14:29:43;13.05;;;3.38;;
35110;SDS011;21290;50.158;8.658;2024-02-26T14:32:10;10.23;;;3.10;;
35110;SDS011;21290;50.158;8.658;2024-02-26T14:34:37;4.63;;;3.20;;
35110;SDS011;21290;50.158;8.658;2024-02-26T14:37:04;7.57;;;3.78;;
35110;SDS011;21290;50.158;8.658;2024-02-26T14:39:34;5.00;;;3.50;;
35110;SDS011;21290;50.158;8.658;2024-02-26T14:42:01;4.82;;;3.42;;
35110;SDS011;21290;50.158;8.658;2024-02-26T14:44:28;4.22;;;3.25;;
35110;SDS011;21290;50.158;8.658;2024-02-26T14:46:54;5.00;;;3.60;;
35110;SDS011;21290;50.158;8.658;2024-02-26T14:49:21;5.03;;;3.45;;
35110;SDS011;21290;50.158;8.658;2024-02-26T14:51:48;4.47;;;3.72;;
35110;SDS011;21290;50.158;8.658;2024-02-26T14:54:15;5.90;;;3.40;;
35110;SDS011;21290;50.158;8.658;2024-02-26T14:56:42;6.30;;;3.47;;
35110;SDS011;21290;50.158;8.658;2024-02-26T14:59:08;5.85;;;3.60;;
35110;SDS011;21290;50.158;8.658;2024-02-26T15:01:36;4.47;;;3.17;;
35110;SDS011;21290;50.158;8.658;2024-02-26T15:04:03;4.70;;;3.30;;